Flight Track Log - Related Links

Times and Time Zones

All times are in EDT time to prevent confusion due to time zone crossing. See the USC105 flight status page for this flight to view local times or setup timezone preferences in your user account.

Time Position Orientation Groundspeed Altitude Reporting Facility
EDT Latitude Longitude Course Direction KTS MPH feet Rate Location/Type
Tue 07:16:50 AM 42.2372 -83.5925 259° West 140 161 2,200  Level Cleveland Center
Tue 07:17:51 AM 42.2317 -83.6456 262° West 142 163 3,500 1,219 Climbing Cleveland Center
Tue 07:18:58 AM 42.2517 -83.6831 306° West 136 157 4,800 738 Climbing Cleveland Center
Tue 07:19:53 AM 42.2811 -83.6675 21° North 164 189 5,000 98 Climbing Cleveland Center
Tue 07:21:00 AM 42.2597 -83.6106 117° Southeast 162 186 5,000  Level Cleveland Center
Tue 07:22:01 AM 42.2383 -83.5506 116° Southeast 175 201 5,000  Level Cleveland Center
Tue 07:23:02 AM 42.2214 -83.4881 110° East 175 201 5,000  Level Cleveland Center
Tue 07:23:57 AM 42.2058 -83.4342 111° Southeast 175 201 5,000  Level Cleveland Center
Tue 07:24:58 AM 42.1867 -83.3717 112° Southeast 175 201 5,000  Level Cleveland Center
Tue 07:25:59 AM 42.1714 -83.3064 108° East 175 201 5,000  Level Cleveland Center
Tue 07:26:54 AM 42.1561 -83.2497 110° East 175 201 5,000  Level Cleveland Center
Tue 07:27:54 AM 42.1367 -83.1900 114° Southeast 175 201 5,000  Level Cleveland Center
Tue 07:28:55 AM 42.1003 -83.1467 139° Southeast 181 208 5,000  Level Cleveland Center
Tue 07:29:56 AM 42.0553 -83.1056 146° Southeast 181 208 5,000  Level Cleveland Center
Tue 07:30:51 AM 42.0225 -83.0708 142° Southeast 182 209 5,000  Level Cleveland Center
Tue 07:32:00 AM 41.9777 -83.0678 200° South  Level Estimated
Tue 07:39:00 AM 41.7019 -83.0495 200° South  Level Estimated
Tue 07:39:12 AM 41.6406 -83.2458 177° South 186 214 5,000  Level Indianapolis Center
Tue 07:40:00 AM 41.6955 -83.1016 261° West  Level FlightAware Approximate
Tue 07:40:13 AM 41.5889 -83.2369 173° South 184 212 5,000  Level Indianapolis Center
Tue 07:41:00 AM 41.6567 -83.0991 177° South  Level FlightAware Approximate
Tue 07:41:14 AM 41.5372 -83.2283 173° South 185 213 5,000  Level Indianapolis Center
Tue 07:42:00 AM 41.6179 -83.0965 177° South  Level FlightAware Approximate
Tue 07:42:15 AM 41.4867 -83.2189 172° South 184 212 5,000  Level Indianapolis Center
Tue 07:43:00 AM 41.5790 -83.0939 177° South  Level FlightAware Approximate
Tue 07:43:17 AM 41.4364 -83.2103 173° South 183 211 5,000  Level Indianapolis Center
Tue 07:44:00 AM 41.5402 -83.0914 177° South  Level FlightAware Approximate
Tue 07:44:18 AM 41.3850 -83.2011 172° South 183 211 5,000  Level Indianapolis Center
Tue 07:45:19 AM 41.3344 -83.1925 173° South 183 211 5,000  Level Indianapolis Center
Tue 07:46:21 AM 41.2842 -83.1836 172° South 182 209 5,000  Level Indianapolis Center
Tue 07:47:22 AM 41.2322 -83.1742 172° South 185 213 5,000  Level Indianapolis Center
Tue 07:48:23 AM 41.1825 -83.1656 173° South 181 208 5,000  Level Indianapolis Center
Tue 07:49:24 AM 41.1322 -83.1564 172° South 182 209 5,000  Level Indianapolis Center
Tue 07:50:26 AM 41.0806 -83.1486 174° South 184 212 5,000  Level Indianapolis Center
Tue 07:51:27 AM 41.0300 -83.1389 172° South 182 209 5,000  Level Indianapolis Center
Tue 07:52:28 AM 40.9700 -83.1283 172° South 184 212 5,000  Level Indianapolis Center
Tue 07:53:29 AM 40.9194 -83.1203 173° South 182 209 5,000  Level Indianapolis Center
Tue 07:54:31 AM 40.8686 -83.1125 173° South 181 208 5,000  Level Indianapolis Center
Tue 07:55:32 AM 40.8178 -83.1017 171° South 183 211 5,000 -49 Level Indianapolis Center
Tue 07:56:33 AM 40.7664 -83.0931 173° South 184 212 4,900 -49 Descending Indianapolis Center
Tue 07:57:35 AM 40.7156 -83.0844 173° South 183 211 4,900  Level Indianapolis Center
Tue 07:58:36 AM 40.6647 -83.0769 174° South 183 211 4,900 49 Level Indianapolis Center
Tue 07:59:38 AM 40.6142 -83.0675 172° South 181 208 5,000 49 Climbing Indianapolis Center
Tue 08:00:39 AM 40.5622 -83.0578 172° South 185 213 5,000  Level Indianapolis Center
Tue 08:01:40 AM 40.5136 -83.0494 173° South 182 209 5,000  Level Indianapolis Center
Tue 08:02:42 AM 40.4631 -83.0411 173° South 182 209 5,000  Level Indianapolis Center
Tue 08:03:43 AM 40.4039 -83.0314 173° South 181 208 5,000  Level Indianapolis Center
Tue 08:04:44 AM 40.3542 -83.0225 172° South 180 207 5,000  Level Indianapolis Center
Tue 08:05:46 AM 40.3031 -83.0147 173° South 181 208 5,000  Level Indianapolis Center
Tue 08:06:47 AM 40.2528 -83.0056 172° South 181 208 5,000  Level Indianapolis Center
Tue 08:07:48 AM 40.2022 -82.9964 172° South 181 208 5,000  Level Indianapolis Center
Tue 08:08:50 AM 40.1522 -82.9897 174° South 180 207 5,000  Level Indianapolis Center
Tue 08:09:51 AM 40.1042 -83.0064 195° South 177 204 5,000  Level Indianapolis Center
Tue 08:10:53 AM 40.0561 -83.0236 195° South 176 203 5,000  Level Indianapolis Center
Tue 08:12:03 AM 40.0000 -83.0433 195° South 177 204 5,000  Level Indianapolis Center
Tue 08:12:55 AM 39.9603 -83.0553 193° South 175 201 5,000 -436 Level Indianapolis Center
Tue 08:13:53 AM 39.9089 -83.0725 194° South 184 212 4,200 -878 Descending Indianapolis Center
Tue 08:14:58 AM 39.8558 -83.0903 194° South 189 217 3,200 -545 Descending Indianapolis Center
Tue 08:15:54 AM 39.8022 -83.1097 196° South 186 214 3,100 -98 Descending Indianapolis Center
Tue 08:17:01 AM 39.7597 -83.1189 189° South 176 203 3,000 -47 Descending Indianapolis Center
Tue 08:18:03 AM 39.7344 -83.0653 122° Southeast 178 205 3,000 -244 Level Indianapolis Center
Tue 08:19:04 AM 39.7572 -83.0039 64° Northeast 177 204 2,500 -780 Descending Indianapolis Center
Tue 08:20:06 AM 39.7869 -82.9650 45° Northeast 163 188 1,400 -634 Descending Indianapolis Center
Tue 08:21:07 AM 39.8147 -82.9297 44° Northeast 160 184 1,200 -197 Descending Indianapolis Center

Login

Don't have an account? Register now (free) for customized features, flight alerts, and more!